Time;durP1;ratioP1;P1;durP2;ratioP2;P2;SDS_P1;SDS_P2;PMS_P1;PMS_P2;Temp;Humidity;BMP_temperature;BMP_pressure;BME280_temperature;BME280_humidity;BME280_pressure;Samples;Min_cycle;Max_cycle;Signal;HPM_P1;HPM_P2
2023/12/01 00:02:11;;;;;;;49.63;40.88;;;;;;;;;;5059633;28;20212;-82
2023/12/01 00:04:38;;;;;;;49.70;41.70;;;;;;;;;;5058261;28;20234;-83
2023/12/01 00:07:08;;;;;;;48.40;41.47;;;;;;;;;;5059302;28;20309;-83
2023/12/01 00:09:35;;;;;;;50.92;41.05;;;;;;;;;;5059394;28;20221;-83
2023/12/01 00:12:03;;;;;;;50.60;44.10;;;;;;;;;;5058868;28;20938;-83
2023/12/01 00:14:30;;;;;;;45.58;39.13;;;;;;;;;;5057843;28;20235;-83
2023/12/01 00:16:58;;;;;;;53.58;39.75;;;;;;;;;;5058113;28;20232;-82
2023/12/01 00:19:25;;;;;;;45.75;38.38;;;;;;;;;;5062133;28;20238;-84
2023/12/01 00:21:52;;;;;;;43.67;37.28;;;;;;;;;;5058446;28;20201;-84
2023/12/01 00:24:19;;;;;;;58.67;41.38;;;;;;;;;;5057649;28;20610;-83
2023/12/01 00:26:46;;;;;;;55.83;42.70;;;;;;;;;;5058316;28;20302;-83
2023/12/01 00:29:14;;;;;;;63.33;41.10;;;;;;;;;;5058569;28;20285;-83
2023/12/01 00:31:41;;;;;;;57.22;42.95;;;;;;;;;;5058732;28;20208;-83
2023/12/01 00:34:08;;;;;;;50.90;41.70;;;;;;;;;;5058228;28;20234;-82
2023/12/01 00:36:35;;;;;;;56.30;42.20;;;;;;;;;;5058592;28;20236;-83
2023/12/01 00:39:03;;;;;;;58.75;42.38;;;;;;;;;;5058168;28;20212;-82
2023/12/01 00:41:30;;;;;;;53.10;40.92;;;;;;;;;;5058323;28;20626;-85
2023/12/01 00:43:57;;;;;;;51.67;41.08;;;;;;;;;;5057444;28;20211;-84
2023/12/01 00:46:25;;;;;;;61.70;43.05;;;;;;;;;;5058897;28;20278;-82
2023/12/01 00:48:52;;;;;;;53.38;42.25;;;;;;;;;;5058603;28;20238;-84
2023/12/01 00:51:20;;;;;;;51.15;40.10;;;;;;;;;;5058419;28;20298;-83
2023/12/01 00:53:47;;;;;;;59.75;42.83;;;;;;;;;;5058403;28;20200;-84
2023/12/01 00:56:14;;;;;;;56.83;41.83;;;;;;;;;;5057258;28;20224;-84
2023/12/01 00:58:42;;;;;;;56.15;41.78;;;;;;;;;;5058413;28;20199;-84
2023/12/01 01:01:09;;;;;;;57.08;41.78;;;;;;;;;;5063466;28;20195;-83
2023/12/01 01:03:38;;;;;;;54.28;41.47;;;;;;;;;;5056963;28;20215;-83
2023/12/01 01:06:05;;;;;;;50.13;41.30;;;;;;;;;;5053448;28;20200;-84
2023/12/01 01:08:32;;;;;;;56.80;41.58;;;;;;;;;;5054960;28;20334;-83
2023/12/01 01:10:59;;;;;;;52.25;41.13;;;;;;;;;;5056957;28;20337;-82
2023/12/01 01:13:27;;;;;;;48.35;40.45;;;;;;;;;;5057331;28;20216;-83
2023/12/01 01:15:54;;;;;;;57.15;41.38;;;;;;;;;;5057396;28;20184;-84
2023/12/01 01:18:22;;;;;;;50.30;41.40;;;;;;;;;;5058158;28;20216;-83
2023/12/01 01:20:51;;;;;;;58.65;42.60;;;;;;;;;;5057421;28;20242;-84
2023/12/01 01:23:18;;;;;;;55.33;39.53;;;;;;;;;;5058068;28;20746;-83
2023/12/01 01:25:45;;;;;;;55.50;41.35;;;;;;;;;;5057917;28;20207;-84
2023/12/01 01:28:12;;;;;;;52.65;41.92;;;;;;;;;;5057280;28;20231;-83
2023/12/01 01:30:39;;;;;;;60.65;40.80;;;;;;;;;;5057468;28;20207;-83
2023/12/01 01:33:06;;;;;;;62.53;40.38;;;;;;;;;;5057406;28;20219;-84
2023/12/01 01:35:33;;;;;;;52.53;41.03;;;;;;;;;;5057484;28;20200;-84
2023/12/01 01:38:02;;;;;;;58.72;40.50;;;;;;;;;;5057050;28;20262;-83
2023/12/01 01:40:29;;;;;;;56.80;40.03;;;;;;;;;;5057625;28;20309;-82
2023/12/01 01:42:56;;;;;;;47.33;40.25;;;;;;;;;;5063251;28;20675;-83
2023/12/01 01:45:23;;;;;;;52.15;39.38;;;;;;;;;;5077383;28;20221;-83
2023/12/01 01:47:52;;;;;;;47.72;38.97;;;;;;;;;;5078139;28;20227;-82
2023/12/01 01:50:22;;;;;;;52.72;40.13;;;;;;;;;;5078296;28;20211;-84
2023/12/01 01:52:49;;;;;;;51.65;39.80;;;;;;;;;;5081991;28;20252;-83
2023/12/01 01:55:18;;;;;;;50.30;38.53;;;;;;;;;;5080975;28;20195;-83
2023/12/01 01:57:45;;;;;;;41.10;34.13;;;;;;;;;;5082077;28;20231;-82
2023/12/01 02:00:16;;;;;;;53.83;37.97;;;;;;;;;;5081646;28;20241;-83
2023/12/01 02:02:45;;;;;;;42.47;35.65;;;;;;;;;;5082291;28;20532;-82
2023/12/01 02:05:13;;;;;;;37.38;33.42;;;;;;;;;;5080644;28;20199;-83
2023/12/01 02:07:41;;;;;;;38.33;34.30;;;;;;;;;;5081765;28;20306;-83
2023/12/01 02:10:15;;;;;;;38.00;33.85;;;;;;;;;;5081443;28;20207;-82
2023/12/01 02:12:44;;;;;;;41.22;34.13;;;;;;;;;;5080979;28;20206;-84
2023/12/01 02:15:11;;;;;;;36.47;32.67;;;;;;;;;;5080955;28;20203;-83
2023/12/01 02:17:39;;;;;;;39.38;35.28;;;;;;;;;;5080837;28;20223;-84
2023/12/01 02:20:06;;;;;;;36.38;32.53;;;;;;;;;;5081451;28;20213;-83
2023/12/01 02:22:35;;;;;;;40.15;35.30;;;;;;;;;;5073228;28;20275;-82
2023/12/01 02:25:02;;;;;;;33.38;29.98;;;;;;;;;;5060523;28;20204;-83
2023/12/01 02:27:29;;;;;;;38.08;34.20;;;;;;;;;;5060753;28;20323;-82
2023/12/01 02:29:56;;;;;;;37.65;33.78;;;;;;;;;;5061879;28;20309;-83
2023/12/01 02:32:23;;;;;;;35.85;32.15;;;;;;;;;;5068349;28;20216;-84
2023/12/01 02:34:50;;;;;;;37.80;33.90;;;;;;;;;;5058626;28;20672;-82
2023/12/01 02:37:17;;;;;;;37.97;34.28;;;;;;;;;;5059620;28;20294;-84
2023/12/01 02:39:45;;;;;;;35.95;32.22;;;;;;;;;;5059727;28;20250;-85
2023/12/01 02:42:12;;;;;;;35.97;31.38;;;;;;;;;;5059874;28;20204;-83
2023/12/01 02:44:40;;;;;;;40.92;32.58;;;;;;;;;;5059138;28;20227;-83
2023/12/01 02:47:09;;;;;;;35.22;31.13;;;;;;;;;;5059581;28;20220;-82
2023/12/01 02:49:36;;;;;;;33.13;29.85;;;;;;;;;;5059253;28;20245;-84
2023/12/01 02:52:04;;;;;;;34.28;30.75;;;;;;;;;;5059313;28;20294;-82
2023/12/01 02:54:30;;;;;;;37.75;30.30;;;;;;;;;;5058816;28;20212;-83
2023/12/01 02:56:59;;;;;;;35.47;31.10;;;;;;;;;;5059105;28;20232;-82
2023/12/01 02:59:26;;;;;;;34.75;31.42;;;;;;;;;;5059527;28;20637;-83
2023/12/01 03:01:53;;;;;;;35.17;31.45;;;;;;;;;;5058333;28;20262;-84
2023/12/01 03:04:20;;;;;;;33.22;29.80;;;;;;;;;;5058263;28;20196;-82
2023/12/01 03:06:47;;;;;;;32.65;29.27;;;;;;;;;;5058597;28;20220;-84
2023/12/01 03:09:16;;;;;;;32.78;29.50;;;;;;;;;;5058936;28;20271;-83
2023/12/01 03:11:44;;;;;;;34.97;30.23;;;;;;;;;;5058666;28;20212;-84
2023/12/01 03:14:12;;;;;;;34.95;31.48;;;;;;;;;;5058255;28;20217;-83
2023/12/01 03:16:40;;;;;;;35.10;31.30;;;;;;;;;;5058468;28;20224;-83
2023/12/01 03:19:08;;;;;;;35.17;31.38;;;;;;;;;;5059005;28;20203;-83
2023/12/01 03:21:35;;;;;;;35.28;31.63;;;;;;;;;;5058570;28;20568;-83
2023/12/01 03:24:02;;;;;;;35.47;31.70;;;;;;;;;;5058226;28;20265;-84
2023/12/01 03:26:29;;;;;;;36.80;33.03;;;;;;;;;;5058896;28;20240;-83
2023/12/01 03:28:57;;;;;;;34.70;31.13;;;;;;;;;;5058643;28;20291;-84
2023/12/01 03:31:26;;;;;;;35.38;31.67;;;;;;;;;;5058885;28;20295;-84
2023/12/01 03:33:53;;;;;;;37.65;31.70;;;;;;;;;;5058199;28;20262;-84
2023/12/01 03:36:21;;;;;;;34.20;30.63;;;;;;;;;;5057866;28;20224;-83
2023/12/01 03:38:48;;;;;;;35.65;31.90;;;;;;;;;;5057192;28;20243;-82
2023/12/01 03:41:15;;;;;;;37.08;33.13;;;;;;;;;;5057987;28;20727;-84
2023/12/01 03:43:42;;;;;;;37.42;32.80;;;;;;;;;;5057620;28;20208;-86
2023/12/01 03:46:09;;;;;;;36.08;32.50;;;;;;;;;;5057197;28;20200;-82
2023/12/01 03:48:38;;;;;;;37.25;30.70;;;;;;;;;;5058041;28;20231;-83
2023/12/01 03:51:05;;;;;;;36.30;32.45;;;;;;;;;;5057978;28;20251;-83
2023/12/01 03:53:32;;;;;;;32.10;28.77;;;;;;;;;;5057857;28;20196;-83
2023/12/01 03:56:00;;;;;;;36.08;32.40;;;;;;;;;;5057569;28;20262;-84
2023/12/01 03:58:27;;;;;;;33.95;30.30;;;;;;;;;;5057962;28;20315;-82
2023/12/01 04:00:54;;;;;;;32.03;28.85;;;;;;;;;;5057990;28;20197;-84
2023/12/01 04:03:24;;;;;;;34.92;31.23;;;;;;;;;;5057863;28;20204;-84
2023/12/01 04:05:52;;;;;;;34.38;30.45;;;;;;;;;;5057699;28;20698;-83
2023/12/01 04:08:19;;;;;;;33.35;29.85;;;;;;;;;;5058113;28;20774;-84
2023/12/01 04:10:47;;;;;;;32.85;29.48;;;;;;;;;;5058107;28;20208;-83
2023/12/01 04:13:15;;;;;;;39.38;32.45;;;;;;;;;;5057126;28;20219;-83
2023/12/01 04:15:42;;;;;;;37.08;31.92;;;;;;;;;;5056701;28;20211;-82
2023/12/01 04:18:09;;;;;;;33.67;30.17;;;;;;;;;;5065935;28;20737;-84
2023/12/01 04:20:38;;;;;;;35.58;31.77;;;;;;;;;;5077737;28;20208;-82
2023/12/01 04:23:09;;;;;;;38.15;31.63;;;;;;;;;;5077667;28;20556;-83
2023/12/01 04:25:36;;;;;;;33.70;30.33;;;;;;;;;;5077605;28;20191;-82
2023/12/01 04:28:03;;;;;;;39.92;32.00;;;;;;;;;;5077779;28;20276;-83
2023/12/01 04:30:30;;;;;;;32.70;29.42;;;;;;;;;;5077548;28;20256;-84
2023/12/01 04:32:59;;;;;;;33.92;30.40;;;;;;;;;;5077160;28;20214;-83
2023/12/01 04:35:28;;;;;;;32.92;29.67;;;;;;;;;;5076459;28;20204;-83
2023/12/01 04:37:55;;;;;;;38.85;31.38;;;;;;;;;;5077621;28;20676;-83
2023/12/01 04:40:24;;;;;;;34.45;30.85;;;;;;;;;;5077325;28;20238;-84
2023/12/01 04:42:52;;;;;;;39.60;33.50;;;;;;;;;;5077138;28;20233;-83
2023/12/01 04:45:19;;;;;;;35.15;31.42;;;;;;;;;;5078296;28;20215;-82
2023/12/01 04:47:50;;;;;;;40.95;33.65;;;;;;;;;;5077753;28;20219;-83
2023/12/01 04:50:18;;;;;;;33.83;30.52;;;;;;;;;;5078185;28;20552;-82
2023/12/01 04:52:45;;;;;;;34.63;30.95;;;;;;;;;;5077907;28;20213;-81
2023/12/01 04:55:14;;;;;;;35.53;31.83;;;;;;;;;;5077888;28;20194;-82
2023/12/01 04:57:42;;;;;;;34.70;31.27;;;;;;;;;;5078101;28;20238;-82
2023/12/01 05:00:19;;;;;;;37.28;30.80;;;;;;;;;;5078207;28;20265;-82
2023/12/01 05:02:46;;;;;;;34.35;30.70;;;;;;;;;;5078249;28;20187;-82
2023/12/01 05:05:12;;;;;;;37.17;31.30;;;;;;;;;;5077508;28;20571;-82
2023/12/01 05:07:39;;;;;;;35.95;32.05;;;;;;;;;;5077680;28;20257;-82
2023/12/01 05:10:08;;;;;;;38.47;30.27;;;;;;;;;;5078345;28;20211;-82
2023/12/01 05:12:35;;;;;;;34.30;30.60;;;;;;;;;;5077951;28;20837;-82
2023/12/01 05:15:03;;;;;;;35.90;30.00;;;;;;;;;;5079223;28;20219;-81
2023/12/01 05:17:32;;;;;;;37.15;32.55;;;;;;;;;;5081320;28;20329;-83
2023/12/01 05:19:59;;;;;;;34.50;30.35;;;;;;;;;;5081331;28;20203;-84
2023/12/01 05:22:26;;;;;;;33.15;29.70;;;;;;;;;;5081473;28;20312;-83
2023/12/01 05:24:53;;;;;;;37.00;31.10;;;;;;;;;;5079366;28;20200;-84
2023/12/01 05:27:20;;;;;;;36.42;32.08;;;;;;;;;;5080680;28;20629;-82
2023/12/01 05:29:48;;;;;;;36.72;31.27;;;;;;;;;;5080510;28;20203;-83
2023/12/01 05:32:18;;;;;;;36.38;30.45;;;;;;;;;;5081244;28;20211;-84
2023/12/01 05:34:45;;;;;;;39.63;33.60;;;;;;;;;;5079503;28;20637;-83
2023/12/01 05:37:12;;;;;;;41.13;33.08;;;;;;;;;;5081192;28;20252;-84
2023/12/01 05:39:39;;;;;;;36.60;29.73;;;;;;;;;;5080260;28;20237;-81
2023/12/01 05:42:07;;;;;;;37.05;32.22;;;;;;;;;;5079196;28;20785;-84
2023/12/01 05:44:34;;;;;;;36.00;31.85;;;;;;;;;;5067845;28;20212;-84
2023/12/01 05:47:01;;;;;;;37.67;31.52;;;;;;;;;;5060413;28;20227;-82
2023/12/01 05:49:30;;;;;;;35.45;29.33;;;;;;;;;;5060445;28;20252;-82
2023/12/01 05:51:57;;;;;;;32.80;29.40;;;;;;;;;;5060554;28;20208;-82
2023/12/01 05:54:24;;;;;;;37.92;29.77;;;;;;;;;;5060321;28;20208;-83
2023/12/01 05:56:51;;;;;;;33.58;30.15;;;;;;;;;;5060706;28;20216;-83
2023/12/01 05:59:18;;;;;;;34.05;30.38;;;;;;;;;;5070196;28;20618;-82
2023/12/01 06:01:45;;;;;;;36.47;30.35;;;;;;;;;;5076744;28;20191;-83
2023/12/01 06:04:13;;;;;;;33.88;30.23;;;;;;;;;;5069950;28;20230;-83
2023/12/01 06:06:42;;;;;;;30.70;26.95;;;;;;;;;;5068237;28;20227;-83
2023/12/01 06:09:15;;;;;;;40.78;32.08;;;;;;;;;;5064397;28;20548;-84
2023/12/01 06:11:42;;;;;;;33.92;29.70;;;;;;;;;;5062175;28;20220;-83
2023/12/01 06:14:09;;;;;;;33.22;28.13;;;;;;;;;;5055974;28;20252;-82
2023/12/01 06:16:37;;;;;;;37.45;32.15;;;;;;;;;;5059486;28;20278;-82
2023/12/01 06:19:04;;;;;;;33.30;29.70;;;;;;;;;;5059439;28;20224;-83
2023/12/01 06:21:32;;;;;;;38.95;31.50;;;;;;;;;;5059232;28;20212;-83
2023/12/01 06:24:00;;;;;;;36.05;30.42;;;;;;;;;;5058776;28;20208;-82
2023/12/01 06:26:27;;;;;;;30.45;27.55;;;;;;;;;;5059283;28;20296;-81
2023/12/01 06:28:54;;;;;;;33.40;29.90;;;;;;;;;;5059477;28;20196;-82
2023/12/01 06:31:21;;;;;;;33.50;29.02;;;;;;;;;;5059032;28;20204;-82
2023/12/01 06:33:48;;;;;;;35.65;29.30;;;;;;;;;;5058983;28;20212;-83
2023/12/01 06:36:15;;;;;;;31.40;28.05;;;;;;;;;;5059117;28;20208;-83
2023/12/01 06:38:42;;;;;;;32.13;28.80;;;;;;;;;;5063020;28;20304;-84
2023/12/01 06:41:11;;;;;;;32.47;29.08;;;;;;;;;;5061371;28;20270;-83
2023/12/01 06:43:38;;;;;;;37.05;31.17;;;;;;;;;;5061376;28;20211;-84
2023/12/01 06:46:05;;;;;;;35.70;30.77;;;;;;;;;;5060012;28;20234;-85
2023/12/01 06:48:33;;;;;;;34.63;29.77;;;;;;;;;;5060023;28;20274;-84
2023/12/01 06:51:00;;;;;;;36.15;30.52;;;;;;;;;;5058925;28;20277;-83
2023/12/01 06:53:27;;;;;;;34.35;30.80;;;;;;;;;;5060708;28;20208;-84
2023/12/01 06:55:54;;;;;;;37.72;30.45;;;;;;;;;;5060869;28;20211;-82
2023/12/01 06:58:29;;;;;;;34.17;30.38;;;;;;;;;;5059905;28;20228;-83
2023/12/01 07:00:56;;;;;;;33.92;30.27;;;;;;;;;;5060951;28;20261;-84
2023/12/01 07:03:23;;;;;;;35.33;30.75;;;;;;;;;;5061078;28;20688;-83
2023/12/01 07:05:51;;;;;;;27.55;25.15;;;;;;;;;;5059961;28;20264;-82
2023/12/01 07:08:19;;;;;;;32.92;27.88;;;;;;;;;;5060243;28;20220;-84
2023/12/01 07:10:46;;;;;;;32.67;27.45;;;;;;;;;;5059857;28;20672;-83
2023/12/01 07:13:13;;;;;;;32.15;28.60;;;;;;;;;;5061202;28;20220;-85
2023/12/01 07:15:41;;;;;;;29.80;26.60;;;;;;;;;;5060662;28;20184;-84
2023/12/01 07:18:09;;;;;;;30.20;27.27;;;;;;;;;;5060582;28;20228;-85
2023/12/01 07:20:36;;;;;;;30.70;27.55;;;;;;;;;;5061065;28;20227;-83
2023/12/01 07:23:05;;;;;;;32.20;28.90;;;;;;;;;;5061372;28;20208;-82
2023/12/01 07:25:32;;;;;;;31.70;28.40;;;;;;;;;;5060262;28;20219;-83
2023/12/01 07:28:00;;;;;;;30.60;27.40;;;;;;;;;;5060277;28;20638;-82
2023/12/01 07:30:27;;;;;;;30.63;27.55;;;;;;;;;;5058869;28;20205;-79
2023/12/01 07:32:56;;;;;;;30.17;27.02;;;;;;;;;;5055498;28;20226;-79
2023/12/01 07:35:23;;;;;;;33.08;29.83;;;;;;;;;;5058703;28;20200;-79
2023/12/01 07:37:52;;;;;;;28.95;26.20;;;;;;;;;;5075475;28;20652;-80
2023/12/01 07:40:20;;;;;;;31.20;28.10;;;;;;;;;;5075909;28;20657;-79
2023/12/01 07:42:47;;;;;;;29.65;26.75;;;;;;;;;;5074987;28;20214;-79
2023/12/01 07:45:17;;;;;;;29.90;27.00;;;;;;;;;;5075540;28;20924;-79
2023/12/01 07:47:44;;;;;;;31.77;28.48;;;;;;;;;;5076011;28;20254;-80
2023/12/01 07:50:14;;;;;;;32.30;29.05;;;;;;;;;;5075944;28;20204;-80
2023/12/01 07:52:41;;;;;;;33.42;28.77;;;;;;;;;;5075658;28;20200;-78
2023/12/01 07:55:09;;;;;;;31.20;27.92;;;;;;;;;;5075432;28;20208;-79
2023/12/01 07:57:36;;;;;;;34.13;29.35;;;;;;;;;;5075079;28;20229;-78
2023/12/01 08:00:03;;;;;;;32.72;29.27;;;;;;;;;;5075661;28;20219;-79
2023/12/01 08:02:30;;;;;;;30.48;27.67;;;;;;;;;;5065423;28;20216;-79
2023/12/01 08:04:57;;;;;;;37.85;30.38;;;;;;;;;;5055079;28;20211;-79
2023/12/01 08:07:25;;;;;;;32.10;28.65;;;;;;;;;;5055720;28;20232;-78
2023/12/01 08:09:53;;;;;;;33.60;29.40;;;;;;;;;;5075980;28;20235;-82
2023/12/01 08:12:23;;;;;;;32.03;28.83;;;;;;;;;;5076135;28;20268;-81
2023/12/01 08:14:50;;;;;;;32.42;29.25;;;;;;;;;;5075405;28;20306;-80
2023/12/01 08:17:18;;;;;;;30.08;26.98;;;;;;;;;;5075867;28;20292;-80
2023/12/01 08:19:45;;;;;;;33.67;30.05;;;;;;;;;;5077215;28;20227;-78
2023/12/01 08:22:12;;;;;;;32.97;29.15;;;;;;;;;;5078703;28;20204;-81
2023/12/01 08:24:41;;;;;;;32.45;29.20;;;;;;;;;;5077203;28;20199;-81
2023/12/01 08:27:08;;;;;;;30.88;28.10;;;;;;;;;;5076585;28;20242;-80
2023/12/01 08:29:38;;;;;;;33.25;29.92;;;;;;;;;;5076151;28;20204;-81
2023/12/01 08:32:05;;;;;;;35.15;30.60;;;;;;;;;;5075514;28;20239;-80
2023/12/01 08:34:32;;;;;;;30.67;27.67;;;;;;;;;;5074516;28;20621;-81
2023/12/01 08:36:59;;;;;;;32.83;29.65;;;;;;;;;;5077053;28;20231;-84
2023/12/01 08:39:27;;;;;;;32.67;29.33;;;;;;;;;;5079761;28;20227;-83
2023/12/01 08:41:56;;;;;;;32.05;28.77;;;;;;;;;;5078098;28;20210;-83
2023/12/01 08:44:23;;;;;;;30.77;27.88;;;;;;;;;;5072401;28;20208;-82
2023/12/01 08:46:50;;;;;;;29.40;26.92;;;;;;;;;;5060260;28;20232;-83
2023/12/01 08:49:17;;;;;;;27.63;25.20;;;;;;;;;;5060412;28;20204;-83
2023/12/01 08:51:44;;;;;;;28.98;26.48;;;;;;;;;;5058095;28;20269;-85
2023/12/01 08:54:11;;;;;;;29.00;26.30;;;;;;;;;;5056730;28;20216;-81
2023/12/01 08:56:38;;;;;;;30.67;27.90;;;;;;;;;;5056945;28;20293;-80
2023/12/01 08:59:06;;;;;;;29.58;26.77;;;;;;;;;;5057603;28;20224;-80
2023/12/01 09:01:33;;;;;;;29.02;26.63;;;;;;;;;;5058081;28;20204;-79
2023/12/01 09:04:00;;;;;;;29.58;27.17;;;;;;;;;;5057152;28;20216;-80
2023/12/01 09:06:27;;;;;;;29.80;27.05;;;;;;;;;;5058424;28;20251;-80
2023/12/01 09:08:54;;;;;;;25.55;23.50;;;;;;;;;;5074732;28;20191;-79
2023/12/01 09:11:21;;;;;;;30.65;27.83;;;;;;;;;;5074960;28;20501;-82
2023/12/01 09:16:53;;;;;;;30.05;27.25;;;;;;;;;;5071606;28;20329;-77
2023/12/01 09:22:24;;;;;;;28.65;26.05;;;;;;;;;;5070724;28;20174;-77
2023/12/01 09:24:51;;;;;;;28.83;26.20;;;;;;;;;;5072270;28;20203;-77
2023/12/01 09:27:19;;;;;;;28.80;26.17;;;;;;;;;;5071719;28;20227;-78
2023/12/01 09:29:46;;;;;;;29.73;26.80;;;;;;;;;;5071583;28;20207;-77
2023/12/01 09:32:14;;;;;;;29.80;27.08;;;;;;;;;;5071437;28;20249;-77
2023/12/01 09:34:41;;;;;;;31.48;28.42;;;;;;;;;;5070169;28;20216;-77
2023/12/01 09:37:08;;;;;;;28.80;26.30;;;;;;;;;;5071269;28;20228;-77
2023/12/01 09:39:36;;;;;;;31.30;28.23;;;;;;;;;;5071258;28;20222;-78
2023/12/01 09:42:06;;;;;;;28.60;26.10;;;;;;;;;;5061128;28;20603;-77
2023/12/01 09:44:33;;;;;;;28.40;26.00;;;;;;;;;;5051771;28;20192;-77
2023/12/01 09:47:01;;;;;;;27.23;25.02;;;;;;;;;;5050406;28;20708;-77
2023/12/01 09:49:33;;;;;;;27.38;25.10;;;;;;;;;;5051238;28;20239;-77
2023/12/01 09:52:00;;;;;;;29.30;26.85;;;;;;;;;;5051213;28;20184;-76
2023/12/01 09:54:27;;;;;;;26.25;24.23;;;;;;;;;;5050700;28;20258;-77
2023/12/01 09:56:54;;;;;;;28.08;25.73;;;;;;;;;;5051925;28;20224;-77
2023/12/01 09:59:21;;;;;;;26.38;24.00;;;;;;;;;;5051128;28;20228;-76
2023/12/01 10:01:48;;;;;;;27.17;24.77;;;;;;;;;;5051308;28;20258;-76
2023/12/01 10:04:15;;;;;;;28.35;25.77;;;;;;;;;;5051099;28;20212;-84
2023/12/01 10:06:44;;;;;;;27.77;25.38;;;;;;;;;;5051681;28;20232;-77
2023/12/01 10:09:12;;;;;;;26.60;24.45;;;;;;;;;;5051151;28;20664;-76
2023/12/01 10:11:39;;;;;;;27.88;25.55;;;;;;;;;;5052189;28;20257;-76
2023/12/01 10:14:07;;;;;;;28.40;25.85;;;;;;;;;;5053498;28;20212;-78
2023/12/01 10:16:36;;;;;;;29.98;27.27;;;;;;;;;;5054482;28;20236;-76
2023/12/01 10:19:04;;;;;;;28.50;26.08;;;;;;;;;;5056098;28;20223;-77
2023/12/01 10:21:41;;;;;;;28.27;25.92;;;;;;;;;;5054756;28;20204;-77
2023/12/01 10:24:21;;;;;;;29.15;26.45;;;;;;;;;;5053087;28;20210;-77
2023/12/01 10:26:49;;;;;;;30.35;27.65;;;;;;;;;;5055200;28;20228;-77
2023/12/01 10:29:28;;;;;;;29.25;26.83;;;;;;;;;;5054987;28;20196;-77
2023/12/01 10:31:55;;;;;;;28.83;26.23;;;;;;;;;;5054905;28;20315;-77
2023/12/01 10:34:22;;;;;;;29.10;26.45;;;;;;;;;;5053667;28;20212;-77
2023/12/01 10:36:49;;;;;;;27.73;25.50;;;;;;;;;;5054515;28;20619;-77
2023/12/01 10:39:17;;;;;;;28.67;26.42;;;;;;;;;;5054656;28;20591;-77
2023/12/01 10:41:46;;;;;;;28.90;26.35;;;;;;;;;;5057816;28;20204;-80
2023/12/01 10:44:16;;;;;;;30.23;27.58;;;;;;;;;;5058030;28;20204;-77
2023/12/01 10:46:44;;;;;;;28.38;25.88;;;;;;;;;;5054450;28;20230;-78
2023/12/01 10:49:11;;;;;;;28.70;26.30;;;;;;;;;;5054630;28;20231;-77
2023/12/01 10:51:41;;;;;;;28.63;26.17;;;;;;;;;;5058304;28;20223;-82
2023/12/01 10:54:10;;;;;;;29.70;26.95;;;;;;;;;;5056691;28;20204;-77
2023/12/01 10:56:39;;;;;;;27.80;25.52;;;;;;;;;;5054273;28;20228;-77
2023/12/01 10:59:09;;;;;;;28.55;26.08;;;;;;;;;;5054923;28;20204;-77
2023/12/01 11:01:37;;;;;;;29.27;26.60;;;;;;;;;;5055943;28;20258;-76
2023/12/01 11:04:06;;;;;;;34.85;26.83;;;;;;;;;;5054549;28;20205;-77
2023/12/01 11:06:40;;;;;;;30.05;27.65;;;;;;;;;;5053924;28;20235;-76
2023/12/01 11:09:11;;;;;;;29.52;26.90;;;;;;;;;;5054709;28;20193;-76
2023/12/01 11:11:45;;;;;;;28.52;26.23;;;;;;;;;;5054295;28;20192;-76
2023/12/01 11:14:18;;;;;;;29.38;26.83;;;;;;;;;;5053563;28;20575;-77
2023/12/01 11:16:47;;;;;;;29.30;26.60;;;;;;;;;;5053920;28;20227;-76
2023/12/01 11:19:14;;;;;;;28.23;26.02;;;;;;;;;;5072593;28;20565;-76
2023/12/01 11:21:42;;;;;;;28.02;25.75;;;;;;;;;;5074138;28;20580;-76
2023/12/01 11:24:25;;;;;;;29.05;26.55;;;;;;;;;;5071832;28;20242;-76
2023/12/01 11:26:52;;;;;;;30.17;27.73;;;;;;;;;;5073770;28;20231;-76
2023/12/01 11:29:28;;;;;;;27.38;25.15;;;;;;;;;;5075906;28;20207;-76
2023/12/01 11:31:57;;;;;;;28.05;25.85;;;;;;;;;;5076148;28;20278;-86
2023/12/01 11:34:25;;;;;;;28.63;26.17;;;;;;;;;;5074361;28;20208;-77
2023/12/01 11:36:54;;;;;;;27.13;24.88;;;;;;;;;;5077874;28;20300;-86
2023/12/01 11:39:20;;;;;;;29.77;27.25;;;;;;;;;;5080014;28;20216;-85
2023/12/01 11:41:48;;;;;;;29.65;27.25;;;;;;;;;;5081723;28;20207;-85
2023/12/01 11:44:18;;;;;;;29.10;26.63;;;;;;;;;;5081197;28;20264;-85
2023/12/01 11:46:55;;;;;;;28.50;26.20;;;;;;;;;;5073053;28;20224;-75
2023/12/01 11:49:22;;;;;;;28.55;26.25;;;;;;;;;;5051779;28;20218;-75
2023/12/01 11:51:50;;;;;;;29.33;26.75;;;;;;;;;;5054450;28;20643;-76
2023/12/01 11:54:17;;;;;;;27.58;25.48;;;;;;;;;;5072338;28;20629;-76
2023/12/01 11:56:47;;;;;;;30.15;27.65;;;;;;;;;;5078203;28;20281;-89
2023/12/01 11:59:14;;;;;;;28.75;26.52;;;;;;;;;;5079491;28;20208;-88
2023/12/01 12:01:41;;;;;;;29.58;27.25;;;;;;;;;;5075119;28;20281;-75
2023/12/01 12:04:13;;;;;;;29.08;26.58;;;;;;;;;;5077526;28;20211;-89
2023/12/01 12:06:41;;;;;;;30.02;27.48;;;;;;;;;;5076524;28;20226;-75
2023/12/01 12:09:10;;;;;;;28.73;26.33;;;;;;;;;;5074191;28;20211;-91
2023/12/01 12:11:37;;;;;;;27.30;25.17;;;;;;;;;;5075643;28;20254;-89
2023/12/01 12:14:05;;;;;;;26.92;24.70;;;;;;;;;;5075016;28;20211;-77
2023/12/01 12:16:32;;;;;;;28.38;25.88;;;;;;;;;;5072734;28;20230;-75
2023/12/01 12:19:00;;;;;;;29.83;27.20;;;;;;;;;;5073005;28;20212;-79
2023/12/01 12:21:28;;;;;;;28.90;26.60;;;;;;;;;;5079787;28;20322;-88
2023/12/01 12:23:56;;;;;;;29.20;26.85;;;;;;;;;;5080688;28;20211;-87
2023/12/01 12:26:24;;;;;;;30.05;27.65;;;;;;;;;;5079931;28;20227;-89
2023/12/01 12:28:52;;;;;;;29.67;27.25;;;;;;;;;;5077673;28;20212;-88
2023/12/01 12:31:19;;;;;;;30.88;28.25;;;;;;;;;;5078689;28;20272;-87
2023/12/01 12:33:46;;;;;;;28.75;26.30;;;;;;;;;;5081271;28;20282;-87
2023/12/01 12:36:14;;;;;;;30.58;27.75;;;;;;;;;;5076312;28;20196;-89
2023/12/01 12:38:43;;;;;;;27.95;25.75;;;;;;;;;;5075763;28;20219;-88
2023/12/01 12:41:23;;;;;;;28.17;25.80;;;;;;;;;;5073755;28;20219;-77
2023/12/01 12:43:51;;;;;;;29.95;27.40;;;;;;;;;;5072439;28;20206;-79
2023/12/01 12:46:18;;;;;;;29.42;27.13;;;;;;;;;;5071983;28;20645;-77
2023/12/01 12:48:45;;;;;;;29.40;26.90;;;;;;;;;;5073381;28;20282;-78
2023/12/01 12:51:14;;;;;;;28.60;26.35;;;;;;;;;;5071834;28;20199;-77
2023/12/01 12:53:43;;;;;;;29.60;27.33;;;;;;;;;;5073085;28;20203;-78
2023/12/01 12:56:12;;;;;;;28.25;25.92;;;;;;;;;;5077762;28;20203;-87
2023/12/01 12:58:39;;;;;;;29.65;27.27;;;;;;;;;;5081479;28;20270;-88
2023/12/01 13:01:07;;;;;;;28.40;25.95;;;;;;;;;;5082278;28;20245;-86
2023/12/01 13:03:34;;;;;;;29.92;27.17;;;;;;;;;;5078201;28;20215;-77
2023/12/01 13:06:01;;;;;;;27.33;25.23;;;;;;;;;;5058101;28;20211;-77
2023/12/01 13:08:28;;;;;;;28.50;26.10;;;;;;;;;;5048452;28;20578;-77
2023/12/01 13:10:57;;;;;;;29.63;27.27;;;;;;;;;;5057273;28;20206;-77
2023/12/01 13:13:23;;;;;;;29.30;26.95;;;;;;;;;;5058144;28;20216;-76
2023/12/01 13:15:50;;;;;;;29.35;27.08;;;;;;;;;;5057109;28;20200;-75
2023/12/01 13:18:17;;;;;;;28.27;26.02;;;;;;;;;;5051549;28;20726;-76
2023/12/01 13:20:45;;;;;;;28.65;26.20;;;;;;;;;;5051188;28;20213;-78
2023/12/01 13:23:12;;;;;;;28.23;26.10;;;;;;;;;;5068082;28;20249;-76
2023/12/01 13:25:39;;;;;;;27.52;25.50;;;;;;;;;;5070895;28;20261;-78
2023/12/01 13:28:07;;;;;;;29.02;26.65;;;;;;;;;;5071272;28;20235;-77
2023/12/01 13:30:34;;;;;;;28.40;26.15;;;;;;;;;;5071366;28;20204;-78
2023/12/01 13:33:03;;;;;;;26.58;24.60;;;;;;;;;;5070778;28;20290;-77
2023/12/01 13:35:30;;;;;;;27.63;25.48;;;;;;;;;;5070695;28;20725;-76
2023/12/01 13:37:57;;;;;;;28.00;25.88;;;;;;;;;;5070993;28;20306;-77
2023/12/01 13:40:24;;;;;;;27.35;25.42;;;;;;;;;;5071450;28;20276;-77
2023/12/01 13:42:51;;;;;;;27.73;25.65;;;;;;;;;;5070826;28;20206;-76
2023/12/01 13:45:20;;;;;;;26.05;24.20;;;;;;;;;;5071086;28;20219;-76
2023/12/01 13:47:47;;;;;;;27.10;24.92;;;;;;;;;;5070688;28;20227;-78
2023/12/01 13:50:14;;;;;;;28.65;26.38;;;;;;;;;;5071072;28;20208;-77
2023/12/01 13:52:42;;;;;;;28.45;26.13;;;;;;;;;;5061927;28;20208;-76
2023/12/01 13:55:10;;;;;;;29.02;26.70;;;;;;;;;;5053826;28;20199;-86
2023/12/01 13:57:39;;;;;;;27.45;25.25;;;;;;;;;;5056170;28;20254;-76
2023/12/01 14:00:09;;;;;;;27.13;25.15;;;;;;;;;;5051117;28;20220;-77
2023/12/01 14:02:37;;;;;;;30.73;28.38;;;;;;;;;;5051503;28;20210;-77
2023/12/01 14:05:05;;;;;;;29.10;26.95;;;;;;;;;;5055896;28;20212;-84
2023/12/01 14:07:32;;;;;;;28.13;25.92;;;;;;;;;;5062549;28;20284;-86
2023/12/01 14:09:59;;;;;;;28.98;26.70;;;;;;;;;;5061922;28;20226;-86
2023/12/01 14:12:26;;;;;;;29.20;27.15;;;;;;;;;;5056222;28;20204;-87
2023/12/01 14:14:53;;;;;;;28.88;26.75;;;;;;;;;;5055893;28;20220;-84
2023/12/01 14:17:20;;;;;;;27.30;25.08;;;;;;;;;;5058772;28;20224;-88
2023/12/01 14:19:49;;;;;;;26.58;24.58;;;;;;;;;;5051391;28;20653;-78
2023/12/01 14:22:16;;;;;;;27.80;25.80;;;;;;;;;;5050638;28;20289;-78
2023/12/01 14:24:43;;;;;;;28.77;26.73;;;;;;;;;;5050550;28;20201;-77
2023/12/01 14:27:10;;;;;;;28.55;26.25;;;;;;;;;;5050811;28;20280;-77